createdAt,value
2023-01-11T00:00:56.894Z,83.02
2023-01-11T00:11:00.894Z,81.92
2023-01-11T00:21:07.611Z,83.88
2023-01-11T00:31:09.984Z,83.49
2023-01-11T00:41:33.825Z,84.27
2023-01-11T00:51:36.434Z,85.00
2023-01-11T01:01:38.791Z,82.18
2023-01-11T01:11:41.278Z,83.49
2023-01-11T01:21:43.627Z,82.01
2023-01-11T01:31:46.017Z,82.55
2023-01-11T01:41:48.355Z,82.93
2023-01-11T01:51:57.826Z,82.20
2023-01-11T02:02:01.313Z,82.02
2023-01-11T02:12:06.061Z,82.17
2023-01-11T02:22:32.909Z,82.98
2023-01-11T02:32:53.593Z,83.77
2023-01-11T02:43:40.108Z,81.68
2023-01-11T02:53:52.183Z,82.09
2023-01-11T03:03:54.758Z,81.61
2023-01-11T03:14:17.291Z,82.55
2023-01-11T03:24:51.974Z,82.45
2023-01-11T03:35:18.198Z,83.72
2023-01-11T03:45:20.903Z,82.72
2023-01-11T03:55:26.943Z,83.33
2023-01-11T04:05:29.617Z,81.89
2023-01-11T04:15:34.788Z,82.15
2023-01-11T04:25:37.209Z,82.15
2023-01-11T04:35:39.795Z,83.01
2023-01-11T04:45:42.194Z,81.78
2023-01-11T04:55:44.537Z,82.20
2023-01-11T05:05:56.221Z,80.75
2023-01-11T05:16:00.662Z,80.56
2023-01-11T05:26:09.080Z,79.69
2023-01-11T05:36:22.229Z,79.69
2023-01-11T05:46:26.132Z,80.12
2023-01-11T05:56:28.745Z,78.00
2023-01-11T06:06:31.112Z,76.77
2023-01-11T06:16:33.856Z,72.37
2023-01-11T06:26:36.502Z,69.51
2023-01-11T06:36:39.442Z,68.51
2023-01-11T06:46:41.906Z,68.40
2023-01-11T06:56:44.285Z,66.20
2023-01-11T07:06:46.689Z,64.84
2023-01-11T07:16:49.167Z,64.40
2023-01-11T07:26:52.806Z,65.40
2023-01-11T07:36:55.193Z,64.83
2023-01-11T07:46:58.254Z,65.47
2023-01-11T07:57:00.710Z,64.02
2023-01-11T08:07:03.132Z,64.27
2023-01-11T08:17:10.339Z,63.58
2023-01-11T08:27:12.774Z,65.02
2023-01-11T08:37:15.226Z,65.43
2023-01-11T08:47:17.577Z,65.18
2023-01-11T08:57:19.966Z,65.19
2023-01-11T09:07:22.394Z,64.12
2023-01-11T09:17:24.807Z,64.09
2023-01-11T09:27:27.436Z,63.74
2023-01-11T09:37:29.869Z,64.06
2023-01-11T09:47:47.323Z,62.35
2023-01-11T09:58:03.228Z,62.27
2023-01-11T10:19:38.755Z,61.24
2023-01-11T10:30:12.172Z,61.13
2023-01-11T10:40:39.964Z,61.74
2023-01-11T10:50:51.993Z,61.23
2023-01-11T11:01:08.909Z,61.58
2023-01-11T11:11:17.242Z,61.29
2023-01-11T11:21:40.620Z,61.23
2023-01-11T11:31:47.742Z,61.30
2023-01-11T11:41:53.030Z,61.20
2023-01-11T11:51:55.958Z,62.49
2023-01-11T12:02:02.112Z,64.65
2023-01-11T12:12:05.106Z,65.16
2023-01-11T12:22:18.477Z,64.52
2023-01-11T12:32:53.321Z,65.84
2023-01-11T12:43:13.902Z,65.91
2023-01-11T12:53:24.831Z,65.90
2023-01-11T13:03:53.829Z,65.79
2023-01-11T13:14:03.860Z,65.87
2023-01-11T13:24:14.491Z,66.49
2023-01-11T13:34:19.993Z,66.23
2023-01-11T13:44:36.954Z,67.11
2023-01-11T13:55:02.053Z,66.85
2023-01-11T14:05:16.339Z,67.76
2023-01-11T14:15:34.913Z,67.71
2023-01-11T14:25:40.034Z,68.72
2023-01-11T14:35:57.392Z,68.44
2023-01-11T14:46:46.849Z,68.35
2023-01-11T14:56:53.729Z,68.94
2023-01-11T15:06:57.387Z,69.07
2023-01-11T15:17:20.825Z,69.53
2023-01-11T15:27:38.820Z,69.65
2023-01-11T15:37:53.168Z,69.61
2023-01-11T15:48:13.757Z,69.49
2023-01-11T15:58:53.512Z,70.21
2023-01-11T16:08:59.196Z,70.59
2023-01-11T16:19:14.396Z,71.20
2023-01-11T16:29:37.122Z,71.46
2023-01-11T16:39:40.011Z,70.60
2023-01-11T16:49:48.994Z,70.22
2023-01-11T17:00:02.880Z,70.61
2023-01-11T17:10:35.130Z,70.71
2023-01-11T17:20:37.603Z,70.45
2023-01-11T17:30:40.243Z,70.07
2023-01-11T17:40:45.194Z,70.74
2023-01-11T17:50:57.014Z,72.49
2023-01-11T18:01:05.286Z,73.07
2023-01-11T18:11:07.767Z,73.26
2023-01-11T18:21:50.875Z,73.84
2023-01-11T18:31:53.307Z,74.10
2023-01-11T18:42:08.465Z,74.16
2023-01-11T18:52:11.777Z,74.40
2023-01-11T19:02:27.720Z,74.47
2023-01-11T19:12:30.475Z,74.67
2023-01-11T19:22:32.864Z,74.83
2023-01-11T19:32:35.390Z,75.09
2023-01-11T19:42:41.080Z,74.91
2023-01-11T19:52:44.312Z,75.09
2023-01-11T20:02:46.862Z,75.13
2023-01-11T20:12:49.383Z,74.40
2023-01-11T20:22:51.753Z,74.20
2023-01-11T20:32:54.129Z,74.45
2023-01-11T20:42:56.488Z,74.18
2023-01-11T20:53:00.519Z,75.00
2023-01-11T21:03:02.942Z,75.52
2023-01-11T21:23:09.326Z,76.61
2023-01-11T21:40:14.218Z,76.63
2023-01-11T21:50:16.942Z,75.78
2023-01-11T22:00:19.905Z,75.21
2023-01-11T22:10:22.310Z,73.93
2023-01-11T22:20:24.669Z,74.08
2023-01-11T22:30:27.034Z,74.10
2023-01-11T22:40:29.411Z,74.39
2023-01-11T22:50:31.758Z,74.41
2023-01-11T23:00:34.165Z,74.08
2023-01-11T23:10:36.535Z,74.20
2023-01-11T23:20:38.898Z,73.10
2023-01-11T23:30:41.235Z,72.56
2023-01-11T23:41:02.119Z,73.07
2023-01-11T23:51:04.949Z,73.58
